Weather History for Pratt, KS

Change the Weather History Date:

Friday, November 2, 2012

  Actual Average (KP28) Record (KP28)
Temperature  
Mean Temperature 56 °F 52 °F  
Max Temperature 69 °F 64 °F 83 °F (1914)
Min Temperature 44 °F 39 °F 13 °F (1966)
Degree Days  
Heating Degree Days 8 13  
Month to date heating degree days 26  
Since 1 July heating degree days 295  
Cooling Degree Days 0 0  
Month to date cooling degree days 0  
Year to date cooling degree days 1769  
Growing Degree Days 6 (Base 50)    
Moisture  
Dew Point 38 °F    
Average Humidity 52    
Maximum Humidity 76    
Minimum Humidity 23    
Precipitation  
Precipitation 0.00 in 0.06 in 1.21 in (1938)
Month to date precipitation 0.11  
Year to date precipitation 25.40  
Snow  
Snow 0.00 in 0.00 in - ()
Month to date snowfall 0.0  
Since 1 July snowfall 0.0  
Since 1 September snowfall 0.0  
Snow Depth -    
Sea Level Pressure  
Sea Level Pressure 29.88 in    
Wind  
Wind Speed 10 mph (West)    
Max Wind Speed 17 mph    
Max Gust Speed 23 mph    
Visibility 10 miles    
Events      
T = Trace of Precipitation, MM = Missing Value Source: NWS Daily Summary

Daily Weather History Graph

Daily Weather History Graph

Search for Another Location

Airport:

Trip Planner

Search our weather history database for the weather conditions in past years. The results will help you decide how hot, cold, wet, or windy it might be!

Date:

Astronomy

Nov. 02, 2012 Rise Set
Actual Time 8:01 AM CDT 6:34 PM CDT
Civil Twilight 7:34 AM CDT 7:02 PM CDT
Nautical Twilight 7:03 AM CDT 7:33 PM CDT
Astronomical Twilight 6:32 AM CDT 8:03 PM CDT
Moon 9:25 PM CDT (11/2) 11:21 AM CDT (11/2)
Length of Visible Light 11h 27m
Length of Day
10h 32m
Waning Gibbous, 87% of the Moon is Illuminated
Nov 2
Waning Gibbous
Nov 6
Last Quarter
Nov 13
New
Nov 20
First Quarter
Nov 28
Full

Hourly Weather History & Observations

Time (CDT) Temp. Windchill Dew Point Humidity Pressure Visibility Wind Dir Wind Speed Gust Speed Precip Events Conditions
12:15 AM 59.0 °F - 39.2 °F 48% 29.91 in 10.0 mi South 6.9 mph - N/A   Clear
12:35 AM 59.0 °F - 39.2 °F 48% 29.91 in 10.0 mi SSE 9.2 mph - N/A   Clear
12:55 AM 57.2 °F - 39.2 °F 51% 29.90 in 10.0 mi SSE 9.2 mph - N/A   Clear
1:15 AM 57.2 °F - 39.2 °F 51% 29.90 in 10.0 mi South 6.9 mph - N/A   Clear
1:35 AM 55.4 °F - 39.2 °F 54% 29.90 in 10.0 mi South 8.1 mph - N/A   Clear
2:15 AM 55.4 °F - 41.0 °F 58% 29.89 in 10.0 mi South 8.1 mph - N/A   Clear
2:35 AM 55.4 °F - 41.0 °F 58% 29.88 in 10.0 mi South 9.2 mph - N/A   Clear
2:55 AM 55.4 °F - 41.0 °F 58% 29.88 in 10.0 mi South 6.9 mph - N/A   Clear
3:15 AM 57.2 °F - 42.8 °F 59% 29.87 in 10.0 mi South 10.4 mph - N/A   Clear
3:35 AM 57.2 °F - 42.8 °F 59% 29.86 in 10.0 mi SSE 10.4 mph - N/A   Clear
3:55 AM 55.4 °F - 42.8 °F 63% 29.86 in 10.0 mi SSE 9.2 mph - N/A   Clear
4:15 AM 57.2 °F - 42.8 °F 59% 29.85 in 10.0 mi SSE 12.7 mph - N/A   Clear
4:35 AM 55.4 °F - 42.8 °F 63% 29.84 in 10.0 mi SSE 10.4 mph - N/A   Clear
4:55 AM 55.4 °F - 42.8 °F 63% 29.84 in 10.0 mi SSE 8.1 mph - N/A   Clear
5:15 AM 55.4 °F - 42.8 °F 63% 29.83 in 10.0 mi SSE 10.4 mph - N/A   Clear
5:35 AM 53.6 °F - 42.8 °F 67% 29.83 in 10.0 mi SSE 9.2 mph - N/A   Clear
5:55 AM 53.6 °F - 42.8 °F 67% 29.83 in 10.0 mi SSE 9.2 mph - N/A   Clear
6:15 AM 53.6 °F - 42.8 °F 67% 29.83 in 10.0 mi SSE 9.2 mph - N/A   Clear
6:35 AM 51.8 °F - 42.8 °F 71% 29.82 in 10.0 mi South 9.2 mph - N/A   Clear
6:55 AM 51.8 °F - 41.0 °F 67% 29.81 in 10.0 mi South 9.2 mph - N/A   Clear
7:15 AM 51.8 °F - 41.0 °F 67% 29.81 in 10.0 mi SSE 9.2 mph - N/A   Clear
7:35 AM 51.8 °F - 41.0 °F 67% 29.80 in 10.0 mi South 9.2 mph - N/A   Clear
7:55 AM 51.8 °F - 41.0 °F 67% 29.80 in 10.0 mi South 10.4 mph - N/A   Clear
8:15 AM 50.0 °F - 41.0 °F 71% 29.81 in 10.0 mi South 8.1 mph - N/A   Clear
8:35 AM 48.2 °F - 41.0 °F 76% 29.82 in 10.0 mi SW 4.6 mph - N/A   Clear
8:55 AM 50.0 °F - 39.2 °F 66% 29.82 in 10.0 mi South 4.6 mph - N/A   Clear
9:15 AM 48.2 °F - 39.2 °F 71% 29.83 in 10.0 mi SSW 4.6 mph - N/A   Clear
9:35 AM 51.8 °F - 41.0 °F 67% 29.83 in 10.0 mi SSW 6.9 mph - N/A   Clear
9:55 AM 53.6 °F - 41.0 °F 62% 29.83 in 10.0 mi SSW 8.1 mph - N/A   Clear
10:15 AM 57.2 °F - 39.2 °F 51% 29.83 in 10.0 mi SW 9.2 mph - N/A   Clear
10:35 AM 60.8 °F - 35.6 °F 39% 29.83 in 10.0 mi WSW 10.4 mph - N/A   Clear
10:55 AM 62.6 °F - 32.0 °F 32% 29.82 in 10.0 mi WSW 10.4 mph - N/A   Clear
11:15 AM 62.6 °F - 32.0 °F 32% 29.83 in 10.0 mi WSW 10.4 mph - N/A   Clear
11:35 AM 64.4 °F - 30.2 °F 28% 29.83 in 10.0 mi West 9.2 mph - N/A   Clear
11:55 AM 68.0 °F - 28.4 °F 23% 29.83 in 10.0 mi West 9.2 mph - N/A   Clear
12:15 PM 68.0 °F - 30.2 °F 24% 29.84 in 10.0 mi West 10.4 mph - N/A   Clear
12:35 PM 69.8 °F - 30.2 °F 23% 29.84 in 10.0 mi West 10.4 mph 18.4 mph N/A   Clear
12:55 PM 69.8 °F - 30.2 °F 23% 29.83 in 10.0 mi WNW 8.1 mph - N/A   Clear
1:15 PM 69.8 °F - 32.0 °F 25% 29.83 in 10.0 mi WNW 10.4 mph - N/A   Clear
1:35 PM 69.8 °F - 32.0 °F 25% 29.83 in 10.0 mi NW 9.2 mph - N/A   Clear
1:55 PM 69.8 °F - 33.8 °F 27% 29.83 in 10.0 mi NW 8.1 mph - N/A   Clear
2:15 PM 69.8 °F - 33.8 °F 27% 29.83 in 10.0 mi NW 12.7 mph - N/A   Clear
2:35 PM 69.8 °F - 33.8 °F 27% 29.84 in 10.0 mi WNW 8.1 mph - N/A   Clear
2:55 PM 69.8 °F - 37.4 °F 31% 29.84 in 10.0 mi NNW 11.5 mph - N/A   Clear
3:15 PM 69.8 °F - 37.4 °F 31% 29.84 in 10.0 mi NW 10.4 mph - N/A   Clear
3:35 PM 69.8 °F - 37.4 °F 31% 29.84 in 10.0 mi NW 9.2 mph 17.3 mph N/A   Clear
3:55 PM 69.8 °F - 35.6 °F 28% 29.85 in 10.0 mi NNW 11.5 mph 16.1 mph N/A   Clear
4:15 PM 69.8 °F - 37.4 °F 31% 29.86 in 10.0 mi North 11.5 mph - N/A   Clear
4:35 PM 69.8 °F - 37.4 °F 31% 29.86 in 10.0 mi NNW 12.7 mph - N/A   Clear
4:55 PM 68.0 °F - 37.4 °F 33% 29.86 in 10.0 mi North 13.8 mph 19.6 mph N/A   Clear
5:15 PM 68.0 °F - 37.4 °F 33% 29.87 in 10.0 mi North 13.8 mph - N/A   Clear
5:35 PM 66.2 °F - 41.0 °F 40% 29.88 in 10.0 mi North 15.0 mph - N/A   Clear
5:55 PM 64.4 °F - 41.0 °F 42% 29.89 in 10.0 mi North 17.3 mph - N/A   Clear
6:15 PM 62.6 °F - 41.0 °F 45% 29.90 in 10.0 mi North 17.3 mph 21.9 mph N/A   Clear
6:35 PM 60.8 °F - 41.0 °F 48% 29.92 in 10.0 mi North 16.1 mph - N/A   Clear
6:55 PM 59.0 °F - 41.0 °F 51% 29.93 in 10.0 mi North 15.0 mph - N/A   Clear
7:15 PM 55.4 °F - 41.0 °F 58% 29.93 in 10.0 mi North 12.7 mph - N/A   Clear
7:35 PM 55.4 °F - 41.0 °F 58% 29.95 in 10.0 mi North 13.8 mph - N/A   Clear
7:55 PM 53.6 °F - 41.0 °F 62% 29.95 in 10.0 mi North 15.0 mph - N/A   Clear
8:15 PM 53.6 °F - 41.0 °F 62% 29.96 in 10.0 mi North 15.0 mph - N/A   Clear
8:35 PM 53.6 °F - 41.0 °F 62% 29.98 in 10.0 mi North 17.3 mph 20.7 mph N/A   Clear
8:55 PM 51.8 °F - 41.0 °F 67% 29.98 in 10.0 mi North 15.0 mph - N/A   Clear
9:35 PM 50.0 °F - 37.4 °F 62% 30.01 in 10.0 mi North 17.3 mph - N/A   Clear
9:55 PM 48.2 °F - 37.4 °F 66% 30.02 in 10.0 mi North 13.8 mph - N/A   Clear
10:15 PM 46.4 °F 40.1 °F 37.4 °F 71% 30.03 in 10.0 mi North 15.0 mph - N/A   Clear
10:35 PM 46.4 °F 40.4 °F 37.4 °F 71% 30.04 in 10.0 mi North 13.8 mph - N/A   Clear
10:55 PM 46.4 °F 40.7 °F 35.6 °F 66% 30.05 in 10.0 mi North 12.7 mph - N/A   Clear
11:15 PM 44.6 °F 37.4 °F 35.6 °F 71% 30.05 in 10.0 mi North 16.1 mph 19.6 mph N/A   Clear
11:35 PM 44.6 °F 37.2 °F 35.6 °F 71% 30.05 in 10.0 mi North 17.3 mph 23.0 mph N/A   Clear
11:55 PM 44.6 °F 37.4 °F 35.6 °F 71% 30.06 in 10.0 mi North 16.1 mph - N/A   Clear